VXP701 KRDU-KHVN
Flight info
| Callsign | VXP701 |
|---|---|
| Flight time | 1h 17m |
| Altitude | 39000 |
| Route | HURIC4 FEBEL GUILD SAWED KALDA SARDI1 |
| Aircraft | B737/M-SDE2E3FGHIRWXY/LB1 |
Departure
| Time | 2026-05-06 16:36 |
|---|---|
| Airport | Raleigh-Durham International Airport (KRDU) |
Arrival
| Time | 2026-05-06 17:53 |
|---|---|
| Airport | Tweed New Haven Airport (KHVN) |
| Time | Latitude | Longitude | Altitude | Speed | Heading |
|---|---|---|---|---|---|
| 2026-05-06 16:10 | 35.87253 | -78.79115 | 444 ft | 0 kts | 313° |
| 2026-05-06 16:27 | 35.87245 | -78.79103 | 444 ft | 2 kts | 313° |
| 2026-05-06 16:27 | 35.87234 | -78.79089 | 444 ft | 2 kts | 313° |
| 2026-05-06 16:27 | 35.87224 | -78.79076 | 444 ft | 2 kts | 312° |
| 2026-05-06 16:28 | 35.87214 | -78.79063 | 444 ft | 2 kts | 313° |
| 2026-05-06 16:28 | 35.87204 | -78.79049 | 444 ft | 2 kts | 316° |
| 2026-05-06 16:28 | 35.87190 | -78.79042 | 444 ft | 2 kts | 1° |
| 2026-05-06 16:28 | 35.87176 | -78.79047 | 444 ft | 1 kts | 38° |
| 2026-05-06 16:29 | 35.87172 | -78.79052 | 444 ft | 1 kts | 49° |
| 2026-05-06 16:29 | 35.87169 | -78.79055 | 444 ft | 0 kts | 46° |
| 2026-05-06 16:30 | 35.87170 | -78.79054 | 444 ft | 0 kts | 46° |
| 2026-05-06 16:30 | 35.87188 | -78.79031 | 444 ft | 8 kts | 45° |
| 2026-05-06 16:31 | 35.87232 | -78.78979 | 444 ft | 9 kts | 44° |
| 2026-05-06 16:31 | 35.87293 | -78.78905 | 444 ft | 14 kts | 45° |
| 2026-05-06 16:31 | 35.87376 | -78.78800 | 444 ft | 18 kts | 45° |
| 2026-05-06 16:31 | 35.87464 | -78.78692 | 444 ft | 17 kts | 45° |
| 2026-05-06 16:32 | 35.87546 | -78.78590 | 444 ft | 17 kts | 45° |
| 2026-05-06 16:32 | 35.87628 | -78.78488 | 444 ft | 16 kts | 44° |
| 2026-05-06 16:32 | 35.87704 | -78.78394 | 444 ft | 14 kts | 45° |
| 2026-05-06 16:32 | 35.87776 | -78.78305 | 444 ft | 15 kts | 45° |
| 2026-05-06 16:33 | 35.87863 | -78.78198 | 444 ft | 19 kts | 44° |
| 2026-05-06 16:33 | 35.87940 | -78.78104 | 444 ft | 10 kts | 45° |
| 2026-05-06 16:33 | 35.87969 | -78.78064 | 444 ft | 5 kts | 62° |
| 2026-05-06 16:34 | 35.87912 | -78.77958 | 444 ft | 8 kts | 168° |
| 2026-05-06 16:34 | 35.87892 | -78.77969 | 444 ft | 0 kts | 224° |
| 2026-05-06 16:34 | 35.87890 | -78.77971 | 444 ft | 0 kts | 224° |
| 2026-05-06 16:34 | 35.87888 | -78.77973 | 444 ft | 0 kts | 224° |
| 2026-05-06 16:35 | 35.87886 | -78.77975 | 444 ft | 0 kts | 224° |
| 2026-05-06 16:35 | 35.87885 | -78.77978 | 444 ft | 0 kts | 224° |
| 2026-05-06 16:35 | 35.87883 | -78.77979 | 444 ft | 0 kts | 224° |
| 2026-05-06 16:35 | 35.87846 | -78.78025 | 444 ft | 30 kts | 224° |
| 2026-05-06 16:36 | 35.87520 | -78.78430 | 444 ft | 100 kts | 224° |
| 2026-05-06 16:36 | 35.86888 | -78.79210 | 478 ft | 155 kts | 223° |
| 2026-05-06 16:36 | 35.86158 | -78.80199 | 1151 ft | 160 kts | 226° |
| 2026-05-06 16:36 | 35.85420 | -78.81254 | 1851 ft | 169 kts | 227° |
| 2026-05-06 16:37 | 35.84652 | -78.82390 | 2550 ft | 178 kts | 228° |
| 2026-05-06 16:37 | 35.83863 | -78.83594 | 3254 ft | 188 kts | 229° |
| 2026-05-06 16:37 | 35.83031 | -78.84869 | 3945 ft | 199 kts | 228° |
| 2026-05-06 16:37 | 35.81981 | -78.86037 | 4644 ft | 210 kts | 209° |
| 2026-05-06 16:38 | 35.80515 | -78.86354 | 5261 ft | 231 kts | 173° |
| 2026-05-06 16:38 | 35.79055 | -78.85434 | 6017 ft | 253 kts | 140° |
| 2026-05-06 16:38 | 35.78157 | -78.83478 | 6640 ft | 282 kts | 107° |
| 2026-05-06 16:38 | 35.78243 | -78.81002 | 7453 ft | 301 kts | 73° |
| 2026-05-06 16:39 | 35.79210 | -78.78732 | 8373 ft | 309 kts | 58° |
| 2026-05-06 16:39 | 35.80213 | -78.76356 | 9304 ft | 315 kts | 68° |
| 2026-05-06 16:39 | 35.80970 | -78.73820 | 10223 ft | 322 kts | 72° |
| 2026-05-06 16:39 | 35.81694 | -78.71187 | 10948 ft | 337 kts | 72° |
| 2026-05-06 16:40 | 35.82455 | -78.68372 | 11703 ft | 351 kts | 72° |
| 2026-05-06 16:40 | 35.83219 | -78.65487 | 12641 ft | 359 kts | 72° |
| 2026-05-06 16:40 | 35.83983 | -78.62572 | 13605 ft | 365 kts | 72° |
| 2026-05-06 16:40 | 35.84764 | -78.59577 | 14579 ft | 372 kts | 73° |
| 2026-05-06 16:41 | 35.85548 | -78.56557 | 15536 ft | 378 kts | 73° |
| 2026-05-06 16:41 | 35.86357 | -78.53432 | 16487 ft | 384 kts | 73° |
| 2026-05-06 16:41 | 35.87163 | -78.50315 | 17389 ft | 390 kts | 73° |
| 2026-05-06 16:41 | 35.87987 | -78.47121 | 18278 ft | 395 kts | 73° |
| 2026-05-06 16:42 | 35.88821 | -78.43886 | 19137 ft | 401 kts | 73° |
| 2026-05-06 16:42 | 35.89665 | -78.40603 | 19977 ft | 407 kts | 73° |
| 2026-05-06 16:42 | 35.90526 | -78.37250 | 20793 ft | 412 kts | 74° |
| 2026-05-06 16:42 | 35.91354 | -78.33853 | 21589 ft | 416 kts | 78° |
| 2026-05-06 16:43 | 35.91919 | -78.30339 | 22334 ft | 419 kts | 85° |
| 2026-05-06 16:43 | 35.92278 | -78.26763 | 23073 ft | 423 kts | 87° |
| 2026-05-06 16:43 | 35.92633 | -78.23164 | 23794 ft | 428 kts | 86° |
| 2026-05-06 16:43 | 35.93006 | -78.19531 | 24478 ft | 433 kts | 86° |
| 2026-05-06 16:44 | 35.93380 | -78.15829 | 25140 ft | 437 kts | 87° |
| 2026-05-06 16:44 | 35.93747 | -78.12074 | 25816 ft | 441 kts | 87° |
| 2026-05-06 16:44 | 35.94111 | -78.08287 | 26127 ft | 455 kts | 87° |
| 2026-05-06 16:44 | 35.94485 | -78.04366 | 26560 ft | 464 kts | 87° |
| 2026-05-06 16:45 | 35.94869 | -78.00359 | 27111 ft | 470 kts | 87° |
| 2026-05-06 16:45 | 35.95250 | -77.96368 | 27677 ft | 476 kts | 87° |
| 2026-05-06 16:45 | 35.95874 | -77.92320 | 28254 ft | 484 kts | 78° |
| 2026-05-06 16:45 | 35.97019 | -77.88364 | 28793 ft | 493 kts | 68° |
| 2026-05-06 16:46 | 35.98694 | -77.84654 | 29339 ft | 499 kts | 58° |
| 2026-05-06 16:46 | 36.00651 | -77.81148 | 29848 ft | 504 kts | 56° |
| 2026-05-06 16:46 | 36.02669 | -77.77578 | 30361 ft | 508 kts | 56° |
| 2026-05-06 16:46 | 36.04657 | -77.73958 | 30875 ft | 511 kts | 57° |
| 2026-05-06 16:47 | 36.06624 | -77.70343 | 31331 ft | 515 kts | 57° |
| 2026-05-06 16:47 | 36.08633 | -77.66666 | 31857 ft | 518 kts | 57° |
| 2026-05-06 16:47 | 36.10657 | -77.62978 | 32505 ft | 517 kts | 57° |
| 2026-05-06 16:47 | 36.12677 | -77.59306 | 33153 ft | 515 kts | 57° |
| 2026-05-06 16:48 | 36.14676 | -77.55668 | 33714 ft | 515 kts | 57° |
| 2026-05-06 16:48 | 36.16686 | -77.52000 | 34282 ft | 513 kts | 57° |
| 2026-05-06 16:48 | 36.18687 | -77.48341 | 34816 ft | 513 kts | 57° |
| 2026-05-06 16:48 | 36.20673 | -77.44704 | 35161 ft | 517 kts | 57° |
| 2026-05-06 16:49 | 36.22692 | -77.41000 | 35478 ft | 520 kts | 57° |
| 2026-05-06 16:49 | 36.24731 | -77.37249 | 35913 ft | 521 kts | 57° |
| 2026-05-06 16:49 | 36.26731 | -77.33569 | 36366 ft | 521 kts | 58° |
| 2026-05-06 16:49 | 36.28791 | -77.29892 | 36780 ft | 521 kts | 56° |
| 2026-05-06 16:50 | 36.31002 | -77.26314 | 37176 ft | 522 kts | 51° |
| 2026-05-06 16:50 | 36.33467 | -77.23009 | 37598 ft | 521 kts | 45° |
| 2026-05-06 16:50 | 36.36113 | -77.19952 | 37989 ft | 520 kts | 42° |
| 2026-05-06 16:50 | 36.38783 | -77.16946 | 38327 ft | 521 kts | 42° |
| 2026-05-06 16:51 | 36.41476 | -77.13885 | 38608 ft | 522 kts | 43° |
| 2026-05-06 16:51 | 36.44143 | -77.10835 | 38938 ft | 521 kts | 43° |
| 2026-05-06 16:51 | 36.46812 | -77.07790 | 39043 ft | 526 kts | 43° |
| 2026-05-06 16:52 | 36.52260 | -77.01633 | 39033 ft | 532 kts | 42° |
| 2026-05-06 16:52 | 36.57744 | -76.95470 | 39025 ft | 528 kts | 42° |
| 2026-05-06 16:53 | 36.63148 | -76.89362 | 39018 ft | 524 kts | 42° |
| 2026-05-06 16:53 | 36.68552 | -76.83247 | 39018 ft | 523 kts | 42° |
| 2026-05-06 16:54 | 36.73915 | -76.77183 | 39018 ft | 521 kts | 42° |
| 2026-05-06 16:54 | 36.79314 | -76.71062 | 39021 ft | 521 kts | 42° |
| 2026-05-06 16:55 | 36.84617 | -76.65022 | 39016 ft | 511 kts | 42° |
| 2026-05-06 16:55 | 36.89836 | -76.59067 | 39008 ft | 506 kts | 42° |
| 2026-05-06 16:56 | 36.95063 | -76.53115 | 38998 ft | 510 kts | 42° |
| 2026-05-06 16:56 | 37.00277 | -76.47146 | 39005 ft | 512 kts | 43° |
| 2026-05-06 16:57 | 37.05535 | -76.41127 | 39005 ft | 515 kts | 43° |
| 2026-05-06 16:57 | 37.10809 | -76.35076 | 38996 ft | 517 kts | 43° |
| 2026-05-06 16:58 | 37.16134 | -76.28954 | 38991 ft | 514 kts | 44° |
| 2026-05-06 16:58 | 37.21304 | -76.22973 | 38995 ft | 500 kts | 36° |
| 2026-05-06 16:58 | 37.23797 | -76.20044 | 38985 ft | 483 kts | 31° |
| 2026-05-06 16:59 | 37.26226 | -76.17219 | 38980 ft | 468 kts | 29° |
| 2026-05-06 16:59 | 37.31073 | -76.11684 | 38972 ft | 478 kts | 29° |
| 2026-05-06 17:00 | 37.36008 | -76.05997 | 38973 ft | 489 kts | 30° |
| 2026-05-06 17:00 | 37.41005 | -76.00188 | 38980 ft | 487 kts | 30° |
| 2026-05-06 17:01 | 37.45961 | -75.94421 | 38987 ft | 483 kts | 30° |
| 2026-05-06 17:01 | 37.50871 | -75.88735 | 38993 ft | 480 kts | 28° |
| 2026-05-06 17:02 | 37.56166 | -75.83910 | 39000 ft | 462 kts | 17° |
| 2026-05-06 17:02 | 37.61615 | -75.79798 | 38999 ft | 447 kts | 17° |
| 2026-05-06 17:02 | 37.64245 | -75.77754 | 39000 ft | 435 kts | 17° |
| 2026-05-06 17:03 | 37.66796 | -75.75800 | 39001 ft | 432 kts | 16° |
| 2026-05-06 17:03 | 37.71985 | -75.71896 | 39000 ft | 439 kts | 16° |
| 2026-05-06 17:04 | 37.77220 | -75.67935 | 38999 ft | 441 kts | 16° |
| 2026-05-06 17:04 | 37.82496 | -75.63944 | 38996 ft | 439 kts | 16° |
| 2026-05-06 17:05 | 37.87655 | -75.59804 | 38993 ft | 446 kts | 20° |
| 2026-05-06 17:05 | 37.92741 | -75.55261 | 38990 ft | 447 kts | 20° |
| 2026-05-06 17:06 | 37.97821 | -75.50825 | 38990 ft | 447 kts | 20° |
| 2026-05-06 17:06 | 38.02937 | -75.46349 | 38991 ft | 449 kts | 20° |
| 2026-05-06 17:07 | 38.08120 | -75.41901 | 38990 ft | 449 kts | 18° |
| 2026-05-06 17:07 | 38.13350 | -75.37693 | 38989 ft | 447 kts | 18° |
| 2026-05-06 17:08 | 38.18601 | -75.33417 | 38969 ft | 446 kts | 18° |
| 2026-05-06 17:08 | 38.23821 | -75.29271 | 38968 ft | 440 kts | 14° |
| 2026-05-06 17:08 | 38.26540 | -75.27625 | 38977 ft | 427 kts | 7° |
| 2026-05-06 17:09 | 38.29286 | -75.26284 | 38968 ft | 424 kts | 6° |
| 2026-05-06 17:09 | 38.34818 | -75.23558 | 38953 ft | 426 kts | 7° |
| 2026-05-06 17:10 | 38.40313 | -75.20834 | 38937 ft | 425 kts | 6° |
| 2026-05-06 17:10 | 38.45855 | -75.18126 | 38935 ft | 427 kts | 6° |
| 2026-05-06 17:11 | 38.51366 | -75.15434 | 38935 ft | 427 kts | 6° |
| 2026-05-06 17:11 | 38.56898 | -75.12735 | 38935 ft | 427 kts | 6° |
| 2026-05-06 17:12 | 38.62452 | -75.09889 | 38936 ft | 436 kts | 11° |
| 2026-05-06 17:12 | 38.65148 | -75.07977 | 38938 ft | 450 kts | 19° |
| 2026-05-06 17:12 | 38.67665 | -75.05567 | 38941 ft | 466 kts | 27° |
| 2026-05-06 17:13 | 38.72533 | -74.99901 | 38944 ft | 471 kts | 29° |
| 2026-05-06 17:13 | 38.77409 | -74.94346 | 38821 ft | 473 kts | 28° |
| 2026-05-06 17:13 | 38.79866 | -74.91585 | 38236 ft | 470 kts | 27° |
| 2026-05-06 17:14 | 38.82387 | -74.88948 | 37641 ft | 465 kts | 25° |
| 2026-05-06 17:14 | 38.84890 | -74.86428 | 37039 ft | 464 kts | 26° |
| 2026-05-06 17:14 | 38.87429 | -74.83849 | 36401 ft | 465 kts | 26° |
| 2026-05-06 17:14 | 38.89966 | -74.81227 | 35744 ft | 466 kts | 27° |
| 2026-05-06 17:15 | 38.92452 | -74.78638 | 35052 ft | 467 kts | 28° |
| 2026-05-06 17:15 | 38.94974 | -74.76007 | 34336 ft | 465 kts | 28° |
| 2026-05-06 17:15 | 38.97498 | -74.73384 | 33605 ft | 467 kts | 28° |
| 2026-05-06 17:15 | 39.00015 | -74.70765 | 32942 ft | 467 kts | 29° |
| 2026-05-06 17:16 | 39.02538 | -74.68120 | 32406 ft | 464 kts | 30° |
| 2026-05-06 17:16 | 39.05026 | -74.65499 | 31859 ft | 462 kts | 30° |
| 2026-05-06 17:16 | 39.07494 | -74.62898 | 31313 ft | 459 kts | 30° |
| 2026-05-06 17:16 | 39.09933 | -74.60330 | 30774 ft | 456 kts | 30° |
| 2026-05-06 17:17 | 39.12396 | -74.57740 | 30228 ft | 454 kts | 30° |
| 2026-05-06 17:17 | 39.14819 | -74.55186 | 29688 ft | 451 kts | 31° |
| 2026-05-06 17:17 | 39.17223 | -74.52595 | 29145 ft | 450 kts | 32° |
| 2026-05-06 17:17 | 39.19611 | -74.49974 | 28599 ft | 447 kts | 32° |
| 2026-05-06 17:18 | 39.21970 | -74.47386 | 28059 ft | 445 kts | 32° |
| 2026-05-06 17:18 | 39.24318 | -74.44824 | 27520 ft | 442 kts | 32° |
| 2026-05-06 17:18 | 39.26671 | -74.42261 | 26979 ft | 440 kts | 33° |
| 2026-05-06 17:18 | 39.29015 | -74.39699 | 26436 ft | 438 kts | 33° |
| 2026-05-06 17:19 | 39.31316 | -74.37168 | 25903 ft | 436 kts | 34° |
| 2026-05-06 17:19 | 39.33612 | -74.34634 | 25366 ft | 433 kts | 35° |
| 2026-05-06 17:19 | 39.35875 | -74.32132 | 24837 ft | 430 kts | 35° |
| 2026-05-06 17:19 | 39.38155 | -74.29616 | 24300 ft | 427 kts | 35° |
| 2026-05-06 17:20 | 39.40392 | -74.27151 | 23770 ft | 420 kts | 36° |
| 2026-05-06 17:20 | 39.42567 | -74.24747 | 23257 ft | 407 kts | 36° |
| 2026-05-06 17:20 | 39.44673 | -74.22414 | 22759 ft | 396 kts | 36° |
| 2026-05-06 17:20 | 39.46751 | -74.20111 | 22264 ft | 388 kts | 36° |
| 2026-05-06 17:21 | 39.48803 | -74.17838 | 21781 ft | 396 kts | 36° |
| 2026-05-06 17:21 | 39.50892 | -74.15498 | 21273 ft | 392 kts | 38° |
| 2026-05-06 17:21 | 39.52792 | -74.12997 | 20912 ft | 389 kts | 45° |
| 2026-05-06 17:21 | 39.54530 | -74.10308 | 20920 ft | 396 kts | 47° |
| 2026-05-06 17:22 | 39.56314 | -74.07539 | 20913 ft | 399 kts | 47° |
| 2026-05-06 17:22 | 39.58083 | -74.04820 | 20913 ft | 399 kts | 47° |
| 2026-05-06 17:22 | 39.59877 | -74.02044 | 20912 ft | 398 kts | 47° |
| 2026-05-06 17:22 | 39.61645 | -73.99290 | 20901 ft | 399 kts | 47° |
| 2026-05-06 17:23 | 39.63425 | -73.96509 | 20900 ft | 399 kts | 47° |
| 2026-05-06 17:23 | 39.65202 | -73.93725 | 20899 ft | 400 kts | 47° |
| 2026-05-06 17:23 | 39.66948 | -73.90986 | 20899 ft | 400 kts | 47° |
| 2026-05-06 17:23 | 39.68747 | -73.88160 | 20899 ft | 400 kts | 47° |
| 2026-05-06 17:24 | 39.70506 | -73.85394 | 20899 ft | 400 kts | 47° |
| 2026-05-06 17:24 | 39.72274 | -73.82607 | 20899 ft | 400 kts | 47° |
| 2026-05-06 17:24 | 39.74055 | -73.79798 | 20899 ft | 400 kts | 47° |
| 2026-05-06 17:24 | 39.75806 | -73.77034 | 20899 ft | 400 kts | 47° |
| 2026-05-06 17:25 | 39.77575 | -73.74239 | 20899 ft | 400 kts | 47° |
| 2026-05-06 17:25 | 39.79325 | -73.71469 | 20899 ft | 400 kts | 47° |
| 2026-05-06 17:25 | 39.81105 | -73.68649 | 20899 ft | 399 kts | 47° |
| 2026-05-06 17:25 | 39.82857 | -73.65874 | 20899 ft | 399 kts | 47° |
| 2026-05-06 17:26 | 39.84591 | -73.63121 | 20427 ft | 394 kts | 48° |
| 2026-05-06 17:26 | 39.86326 | -73.60368 | 19641 ft | 393 kts | 48° |
| 2026-05-06 17:26 | 39.88052 | -73.57633 | 19046 ft | 387 kts | 48° |
| 2026-05-06 17:26 | 39.89753 | -73.54993 | 18534 ft | 378 kts | 46° |
| 2026-05-06 17:27 | 39.91613 | -73.52557 | 18044 ft | 379 kts | 40° |
| 2026-05-06 17:27 | 39.93584 | -73.50259 | 17581 ft | 377 kts | 39° |
| 2026-05-06 17:27 | 39.95510 | -73.47982 | 17150 ft | 369 kts | 40° |
| 2026-05-06 17:27 | 39.97401 | -73.45721 | 16689 ft | 376 kts | 40° |
| 2026-05-06 17:28 | 39.99312 | -73.43448 | 16201 ft | 369 kts | 40° |
| 2026-05-06 17:28 | 40.01203 | -73.41209 | 15726 ft | 363 kts | 40° |
| 2026-05-06 17:28 | 40.03097 | -73.38967 | 15249 ft | 371 kts | 41° |
| 2026-05-06 17:28 | 40.04981 | -73.36729 | 14757 ft | 363 kts | 41° |
| 2026-05-06 17:29 | 40.06809 | -73.34556 | 14286 ft | 359 kts | 42° |
| 2026-05-06 17:29 | 40.08691 | -73.32320 | 13803 ft | 362 kts | 42° |
| 2026-05-06 17:29 | 40.10519 | -73.30149 | 13330 ft | 354 kts | 43° |
| 2026-05-06 17:29 | 40.12333 | -73.27992 | 12996 ft | 353 kts | 43° |
| 2026-05-06 17:30 | 40.14159 | -73.25814 | 13001 ft | 358 kts | 43° |
| 2026-05-06 17:30 | 40.16005 | -73.23610 | 12997 ft | 360 kts | 43° |
| 2026-05-06 17:30 | 40.17832 | -73.21429 | 12999 ft | 359 kts | 43° |
| 2026-05-06 17:30 | 40.19672 | -73.19231 | 12999 ft | 360 kts | 43° |
| 2026-05-06 17:31 | 40.21529 | -73.17011 | 13000 ft | 360 kts | 43° |
| 2026-05-06 17:31 | 40.23367 | -73.14813 | 13001 ft | 359 kts | 43° |
| 2026-05-06 17:31 | 40.25230 | -73.12584 | 13002 ft | 359 kts | 43° |
| 2026-05-06 17:31 | 40.27063 | -73.10389 | 13003 ft | 359 kts | 43° |
| 2026-05-06 17:32 | 40.28910 | -73.08176 | 13004 ft | 359 kts | 43° |
| 2026-05-06 17:32 | 40.30741 | -73.05981 | 13005 ft | 359 kts | 43° |
| 2026-05-06 17:32 | 40.32592 | -73.03760 | 12982 ft | 360 kts | 43° |
| 2026-05-06 17:32 | 40.34435 | -73.01548 | 12483 ft | 362 kts | 43° |
| 2026-05-06 17:33 | 40.36263 | -72.99356 | 11853 ft | 354 kts | 43° |
| 2026-05-06 17:33 | 40.38071 | -72.97186 | 11221 ft | 345 kts | 43° |
| 2026-05-06 17:33 | 40.39803 | -72.95100 | 10600 ft | 338 kts | 43° |
| 2026-05-06 17:33 | 40.41515 | -72.93041 | 9975 ft | 332 kts | 43° |
| 2026-05-06 17:34 | 40.43206 | -72.91010 | 9348 ft | 327 kts | 43° |
| 2026-05-06 17:34 | 40.44870 | -72.89008 | 8679 ft | 324 kts | 43° |
| 2026-05-06 17:34 | 40.46520 | -72.87016 | 8004 ft | 322 kts | 43° |
| 2026-05-06 17:34 | 40.48147 | -72.85056 | 7331 ft | 319 kts | 43° |
| 2026-05-06 17:35 | 40.49772 | -72.83102 | 6655 ft | 318 kts | 42° |
| 2026-05-06 17:35 | 40.51400 | -72.81152 | 6009 ft | 315 kts | 42° |
| 2026-05-06 17:35 | 40.52992 | -72.79234 | 5588 ft | 307 kts | 43° |
| 2026-05-06 17:36 | 40.56097 | -72.75414 | 4728 ft | 306 kts | 43° |
| 2026-05-06 17:36 | 40.57637 | -72.73520 | 4272 ft | 307 kts | 43° |
| 2026-05-06 17:36 | 40.59187 | -72.71622 | 4004 ft | 297 kts | 42° |
| 2026-05-06 17:36 | 40.60765 | -72.69867 | 4020 ft | 302 kts | 33° |
| 2026-05-06 17:37 | 40.62712 | -72.68947 | 4027 ft | 299 kts | 360° |
| 2026-05-06 17:37 | 40.64761 | -72.68946 | 4024 ft | 291 kts | 352° |
| 2026-05-06 17:37 | 40.66777 | -72.68917 | 4030 ft | 288 kts | 357° |
| 2026-05-06 17:37 | 40.68765 | -72.68830 | 4025 ft | 291 kts | 353° |
| 2026-05-06 17:38 | 40.70747 | -72.69070 | 4039 ft | 282 kts | 345° |
| 2026-05-06 17:38 | 40.72726 | -72.69420 | 4014 ft | 282 kts | 345° |
| 2026-05-06 17:38 | 40.74678 | -72.69697 | 4025 ft | 275 kts | 347° |
| 2026-05-06 17:38 | 40.76574 | -72.69969 | 4021 ft | 280 kts | 346° |
| 2026-05-06 17:39 | 40.78499 | -72.70288 | 4017 ft | 279 kts | 346° |
| 2026-05-06 17:39 | 40.80441 | -72.70610 | 4018 ft | 279 kts | 346° |
| 2026-05-06 17:39 | 40.82360 | -72.70929 | 4017 ft | 279 kts | 346° |
| 2026-05-06 17:39 | 40.84312 | -72.71256 | 4017 ft | 283 kts | 346° |
| 2026-05-06 17:40 | 40.86271 | -72.71587 | 4016 ft | 284 kts | 346° |
| 2026-05-06 17:40 | 40.88211 | -72.71915 | 4017 ft | 284 kts | 346° |
| 2026-05-06 17:40 | 40.90181 | -72.72250 | 4017 ft | 284 kts | 346° |
| 2026-05-06 17:40 | 40.92125 | -72.72579 | 4018 ft | 284 kts | 346° |
| 2026-05-06 17:41 | 40.94082 | -72.72912 | 4018 ft | 284 kts | 346° |
| 2026-05-06 17:41 | 40.96057 | -72.73247 | 4017 ft | 284 kts | 346° |
| 2026-05-06 17:41 | 40.98019 | -72.73581 | 4018 ft | 284 kts | 346° |
| 2026-05-06 17:41 | 40.99976 | -72.73914 | 4018 ft | 284 kts | 346° |
| 2026-05-06 17:42 | 41.01939 | -72.74250 | 4018 ft | 284 kts | 346° |
| 2026-05-06 17:42 | 41.03905 | -72.74593 | 4018 ft | 284 kts | 346° |
| 2026-05-06 17:42 | 41.05865 | -72.74934 | 4018 ft | 284 kts | 346° |
| 2026-05-06 17:42 | 41.07814 | -72.75276 | 4018 ft | 284 kts | 346° |
| 2026-05-06 17:43 | 41.09782 | -72.75624 | 4018 ft | 284 kts | 346° |
| 2026-05-06 17:43 | 41.11718 | -72.75965 | 4018 ft | 284 kts | 346° |
| 2026-05-06 17:43 | 41.13690 | -72.76314 | 4018 ft | 284 kts | 346° |
| 2026-05-06 17:43 | 41.15629 | -72.76657 | 4018 ft | 284 kts | 346° |
| 2026-05-06 17:44 | 41.17596 | -72.77007 | 3835 ft | 286 kts | 346° |
| 2026-05-06 17:44 | 41.19537 | -72.77358 | 3473 ft | 275 kts | 346° |
| 2026-05-06 17:44 | 41.21391 | -72.77698 | 3121 ft | 265 kts | 346° |
| 2026-05-06 17:44 | 41.23199 | -72.78035 | 2772 ft | 261 kts | 346° |
| 2026-05-06 17:45 | 41.24982 | -72.78387 | 2503 ft | 250 kts | 346° |
| 2026-05-06 17:45 | 41.26648 | -72.78723 | 2520 ft | 246 kts | 346° |
| 2026-05-06 17:45 | 41.28368 | -72.79069 | 2516 ft | 246 kts | 346° |
| 2026-05-06 17:45 | 41.30016 | -72.79399 | 2518 ft | 236 kts | 346° |
| 2026-05-06 17:46 | 41.31616 | -72.79720 | 2504 ft | 235 kts | 346° |
| 2026-05-06 17:46 | 41.33241 | -72.80044 | 2501 ft | 234 kts | 346° |
| 2026-05-06 17:46 | 41.34864 | -72.80367 | 2494 ft | 234 kts | 346° |
| 2026-05-06 17:46 | 41.36457 | -72.80687 | 2489 ft | 232 kts | 346° |
| 2026-05-06 17:47 | 41.38057 | -72.81008 | 2484 ft | 232 kts | 346° |
| 2026-05-06 17:47 | 41.39661 | -72.81329 | 2478 ft | 233 kts | 346° |
| 2026-05-06 17:47 | 41.41257 | -72.81650 | 2472 ft | 231 kts | 346° |
| 2026-05-06 17:47 | 41.42804 | -72.81966 | 2466 ft | 217 kts | 343° |
| 2026-05-06 17:48 | 41.44075 | -72.82833 | 2463 ft | 200 kts | 304° |
| 2026-05-06 17:48 | 41.44575 | -72.84458 | 2470 ft | 185 kts | 272° |
| 2026-05-06 17:48 | 41.44432 | -72.86067 | 2463 ft | 174 kts | 240° |
| 2026-05-06 17:48 | 41.43603 | -72.87191 | 2463 ft | 172 kts | 207° |
| 2026-05-06 17:49 | 41.42420 | -72.87466 | 2470 ft | 172 kts | 186° |
| 2026-05-06 17:49 | 41.41281 | -72.87541 | 2470 ft | 163 kts | 187° |
| 2026-05-06 17:49 | 41.40152 | -72.87625 | 2475 ft | 163 kts | 187° |
| 2026-05-06 17:49 | 41.39039 | -72.87700 | 2476 ft | 157 kts | 187° |
| 2026-05-06 17:50 | 41.38030 | -72.87769 | 2475 ft | 132 kts | 188° |
| 2026-05-06 17:50 | 41.37167 | -72.87838 | 2259 ft | 116 kts | 188° |
| 2026-05-06 17:50 | 41.36371 | -72.87890 | 2119 ft | 115 kts | 188° |
| 2026-05-06 17:50 | 41.35573 | -72.87948 | 1928 ft | 115 kts | 188° |
| 2026-05-06 17:51 | 41.34766 | -72.88013 | 1755 ft | 117 kts | 188° |
| 2026-05-06 17:51 | 41.33954 | -72.88079 | 1576 ft | 118 kts | 187° |
| 2026-05-06 17:51 | 41.33103 | -72.88158 | 1421 ft | 134 kts | 186° |
| 2026-05-06 17:51 | 41.32185 | -72.88289 | 1179 ft | 131 kts | 185° |
| 2026-05-06 17:52 | 41.31299 | -72.88378 | 1007 ft | 126 kts | 185° |
| 2026-05-06 17:52 | 41.30403 | -72.88454 | 816 ft | 130 kts | 184° |
| 2026-05-06 17:52 | 41.29507 | -72.88544 | 591 ft | 127 kts | 185° |
| 2026-05-06 17:52 | 41.28637 | -72.88612 | 370 ft | 125 kts | 184° |
| 2026-05-06 17:53 | 41.27789 | -72.88671 | 172 ft | 121 kts | 183° |
| 2026-05-06 17:53 | 41.26952 | -72.88731 | 30 ft | 120 kts | 183° |
| 2026-05-06 17:53 | 41.26315 | -72.88777 | 23 ft | 54 kts | 184° |
| 2026-05-06 17:53 | 41.26004 | -72.88799 | 23 ft | 35 kts | 182° |
| 2026-05-06 17:54 | 41.25841 | -72.88775 | 23 ft | 13 kts | 112° |
| 2026-05-06 17:54 | 41.25879 | -72.88699 | 23 ft | 11 kts | 9° |
| 2026-05-06 17:54 | 41.25963 | -72.88681 | 23 ft | 15 kts | 9° |
| 2026-05-06 17:54 | 41.26078 | -72.88653 | 23 ft | 16 kts | 10° |
| 2026-05-06 17:55 | 41.26189 | -72.88628 | 23 ft | 15 kts | 9° |
| 2026-05-06 17:55 | 41.26293 | -72.88592 | 23 ft | 16 kts | 31° |
| 2026-05-06 17:55 | 41.26396 | -72.88490 | 23 ft | 17 kts | 37° |
| 2026-05-06 17:55 | 41.26471 | -72.88481 | 23 ft | 11 kts | 311° |
| 2026-05-06 17:56 | 41.26524 | -72.88563 | 23 ft | 12 kts | 311° |
| 2026-05-06 17:56 | 41.26569 | -72.88630 | 23 ft | 5 kts | 311° |
| 2026-05-06 17:56 | 41.26576 | -72.88641 | 23 ft | 0 kts | 311° |
| 2026-05-06 17:56 | 41.26578 | -72.88644 | 23 ft | 2 kts | 311° |
| 2026-05-06 17:57 | 41.26617 | -72.88703 | 23 ft | 14 kts | 311° |
| 2026-05-06 17:57 | 41.26691 | -72.88815 | 23 ft | 15 kts | 311° |
| 2026-05-06 17:57 | 41.26759 | -72.88920 | 23 ft | 14 kts | 310° |
| 2026-05-06 17:57 | 41.26814 | -72.88972 | 23 ft | 8 kts | 18° |
| 2026-05-06 17:58 | 41.26865 | -72.88924 | 23 ft | 9 kts | 38° |
| 2026-05-06 17:58 | 41.26920 | -72.88910 | 23 ft | 7 kts | 345° |
| 2026-05-06 17:58 | 41.26939 | -72.88951 | 23 ft | 3 kts | 270° |
| 2026-05-06 17:58 | 41.26939 | -72.88959 | 23 ft | 0 kts | 268° |